createdAt,value
2023-05-08T00:00:46.804Z,99375.09
2023-05-08T00:03:37.005Z,99375.81
2023-05-08T00:06:23.600Z,99378.66
2023-05-08T00:09:09.754Z,99380.34
2023-05-08T00:11:55.401Z,99383.16
2023-05-08T00:14:44.414Z,99376.41
2023-05-08T00:17:11.330Z,99383.16
2023-05-08T00:19:38.232Z,99382.16
2023-05-08T00:22:05.164Z,99382.78
2023-05-08T00:24:32.079Z,99379.06
2023-05-08T00:26:59.104Z,99380.22
2023-05-08T00:29:26.097Z,99378.53
2023-05-08T00:31:53.036Z,99390.81
2023-05-08T00:34:20.050Z,99384.19
2023-05-08T00:36:47.049Z,99381.66
2023-05-08T00:39:13.984Z,99381.34
2023-05-08T00:41:40.930Z,99383.03
2023-05-08T00:44:07.914Z,99383.31
2023-05-08T00:46:36.806Z,99386.81
2023-05-08T00:49:06.086Z,99389.75
2023-05-08T00:51:34.097Z,99389.16
2023-05-08T00:54:01.128Z,99393.69
2023-05-08T00:56:29.567Z,99398.47
2023-05-08T00:58:56.949Z,99401.97
2023-05-08T01:01:24.012Z,99401.59
2023-05-08T01:03:51.354Z,99394.94
2023-05-08T01:06:34.719Z,99393.69
2023-05-08T01:09:21.099Z,99395.94
2023-05-08T01:15:36.836Z,99401.88
2023-05-08T01:18:35.048Z,99404.72
2023-05-08T01:21:10.584Z,99410.94
2023-05-08T01:24:16.266Z,99410.09
2023-05-08T01:27:05.232Z,99416.31
2023-05-08T01:29:58.139Z,99413.63
2023-05-08T01:32:32.222Z,99414.31
2023-05-08T01:35:37.888Z,99416.03
2023-05-08T01:38:11.017Z,99420.53
2023-05-08T01:40:57.402Z,99413.63
2023-05-08T01:43:31.035Z,99407.53
2023-05-08T01:46:03.452Z,99410.63
2023-05-08T01:48:35.927Z,99416.97
2023-05-08T01:51:08.630Z,99414.28
2023-05-08T01:53:41.403Z,99421.03
2023-05-08T01:56:19.452Z,99381.19
2023-05-08T01:58:48.135Z,99422.69
2023-05-08T02:01:18.463Z,99409.44
2023-05-08T02:03:47.078Z,99419.84
2023-05-08T02:06:17.574Z,99412.53
2023-05-08T02:08:45.962Z,99423.25
2023-05-08T02:11:14.697Z,99420.56
2023-05-08T02:13:43.684Z,99420.16
2023-05-08T02:16:12.840Z,99422.72
2023-05-08T02:18:52.536Z,99420.38
2023-05-08T02:21:21.010Z,99413.78
2023-05-08T02:23:49.347Z,99421.94
2023-05-08T02:26:16.807Z,99429.31
2023-05-08T02:28:44.612Z,99432.41
2023-05-08T02:31:12.776Z,99429.97
2023-05-08T02:33:42.836Z,99427.59
2023-05-08T02:36:13.378Z,99437.75
2023-05-08T02:38:44.527Z,99434.66
2023-05-08T02:41:14.232Z,99434.06
2023-05-08T02:43:41.460Z,99437.44
2023-05-08T02:46:17.385Z,99437.75
2023-05-08T02:49:02.063Z,99438.03
2023-05-08T02:51:51.153Z,99444.25
2023-05-08T02:54:58.962Z,99414.09
2023-05-08T02:57:46.800Z,99433.81
2023-05-08T03:00:33.689Z,99428.47
2023-05-08T03:03:28.480Z,99439.59
2023-05-08T03:05:58.241Z,99443.44
2023-05-08T03:08:32.961Z,99443.69
2023-05-08T03:11:04.290Z,99438.63
2023-05-08T03:13:35.514Z,99435.94
2023-05-08T03:16:04.777Z,99442.41
2023-05-08T03:18:41.798Z,99443.84
2023-05-08T03:21:11.535Z,99396.50
2023-05-08T03:23:40.978Z,99449.47
2023-05-08T03:26:08.961Z,99445.09
2023-05-08T03:28:38.210Z,99453.13
2023-05-08T03:31:06.746Z,99455.38
2023-05-08T03:33:37.439Z,99429.19
2023-05-08T03:36:04.769Z,99447.06
2023-05-08T03:38:31.829Z,99448.16
2023-05-08T03:41:00.112Z,99442.56
2023-05-08T03:43:29.063Z,99442.56
2023-05-08T03:45:57.541Z,99437.22
2023-05-08T03:48:26.538Z,99449.75
2023-05-08T03:50:54.038Z,99444.50
2023-05-08T03:53:22.345Z,99440.69
2023-05-08T03:55:50.666Z,99446.47
2023-05-08T03:58:23.619Z,99456.75
2023-05-08T04:00:59.569Z,99453.81
2023-05-08T04:03:48.533Z,99454.09
2023-05-08T04:06:28.752Z,99463.94
2023-05-08T04:09:03.194Z,99459.56
2023-05-08T04:11:48.344Z,99466.91
2023-05-08T04:14:19.559Z,99455.03
2023-05-08T04:16:52.769Z,99466.81
2023-05-08T04:19:29.888Z,99471.72
2023-05-08T04:22:03.425Z,99469.38
2023-05-08T04:24:34.311Z,99478.56
2023-05-08T04:27:03.148Z,99483.91
2023-05-08T04:29:31.377Z,99481.13
2023-05-08T04:32:00.299Z,99495.50
2023-05-08T04:34:29.076Z,99491.25
2023-05-08T04:36:56.659Z,99500.03
2023-05-08T04:39:23.580Z,99508.72
2023-05-08T04:41:52.749Z,99496.81
2023-05-08T04:44:19.880Z,99503.38
2023-05-08T04:46:46.773Z,99505.94
2023-05-08T04:49:13.690Z,99511.38
2023-05-08T04:51:40.572Z,99468.75
2023-05-08T04:54:07.616Z,99520.63
2023-05-08T04:56:36.349Z,99515.69
2023-05-08T04:59:03.428Z,99500.78
2023-05-08T05:01:30.475Z,99532.94
2023-05-08T05:03:57.443Z,99528.81
2023-05-08T05:06:24.455Z,99537.25
2023-05-08T05:08:51.371Z,99536.69
2023-05-08T05:11:18.295Z,99541.34
2023-05-08T05:13:45.186Z,99538.94
2023-05-08T05:16:12.191Z,99530.78
2023-05-08T05:18:39.177Z,99544.31
2023-05-08T05:21:06.152Z,99544.28
2023-05-08T05:23:33.528Z,99500.56
2023-05-08T05:26:00.507Z,99553.44
2023-05-08T05:28:27.676Z,99550.38
2023-05-08T05:30:54.732Z,99536.16
2023-05-08T05:33:21.690Z,99548.41
2023-05-08T05:35:48.761Z,99547.13
2023-05-08T05:38:15.867Z,99558.56
2023-05-08T05:40:42.757Z,99553.09
2023-05-08T05:43:09.737Z,99555.03
2023-05-08T05:45:37.252Z,99556.88
2023-05-08T05:48:04.366Z,99563.63
2023-05-08T05:50:31.736Z,99561.66
2023-05-08T05:52:58.612Z,99569.16
2023-05-08T05:55:25.591Z,99569.72
2023-05-08T05:57:52.503Z,99572.81
2023-05-08T06:00:21.419Z,99573.38
2023-05-08T06:02:48.948Z,99569.69
2023-05-08T06:05:16.092Z,99575.00
2023-05-08T06:07:43.009Z,99589.13
2023-05-08T06:10:10.447Z,99585.59
2023-05-08T06:12:37.554Z,99585.75
2023-05-08T06:15:05.187Z,99594.09
2023-05-08T06:17:32.131Z,99584.34
2023-05-08T06:19:59.034Z,99588.75
2023-05-08T06:22:26.065Z,99591.97
2023-05-08T06:24:55.953Z,99579.84
2023-05-08T06:27:23.173Z,99599.56
2023-05-08T06:29:53.608Z,99592.34
2023-05-08T06:32:21.088Z,99598.50
2023-05-08T06:34:48.715Z,99606.22
2023-05-08T06:37:15.699Z,99596.47
2023-05-08T06:39:42.717Z,99603.84
2023-05-08T06:42:09.832Z,99599.94
2023-05-08T06:44:36.793Z,99595.47
2023-05-08T06:47:03.898Z,99593.38
2023-05-08T06:49:30.949Z,99602.38
2023-05-08T06:51:58.202Z,99611.88
2023-05-08T06:54:25.553Z,99579.72
2023-05-08T06:56:55.490Z,99610.16
2023-05-08T06:59:23.532Z,99604.28
2023-05-08T07:01:51.139Z,99604.16
2023-05-08T07:04:18.126Z,99613.47
2023-05-08T07:06:45.080Z,99602.38
2023-05-08T07:09:12.141Z,99606.91
2023-05-08T07:11:39.147Z,99614.78
2023-05-08T07:14:06.018Z,99615.44
2023-05-08T07:16:33.088Z,99615.03
2023-05-08T07:19:00.012Z,99619.19
2023-05-08T07:21:26.956Z,99626.19
2023-05-08T07:23:54.900Z,99616.16
2023-05-08T07:26:22.769Z,99625.09
2023-05-08T07:28:51.062Z,99619.72
2023-05-08T07:31:18.035Z,99625.31
2023-05-08T07:33:45.047Z,99627.72
2023-05-08T07:36:12.099Z,99614.94
2023-05-08T07:38:39.084Z,99637.81
2023-05-08T07:41:06.230Z,99620.28
2023-05-08T07:43:33.344Z,99625.63
2023-05-08T07:46:00.320Z,99634.47
2023-05-08T07:48:27.193Z,99648.91
2023-05-08T07:50:54.110Z,99639.94
2023-05-08T07:53:21.069Z,99636.25
2023-05-08T07:55:48.048Z,99645.59
2023-05-08T07:58:14.994Z,99646.00
2023-05-08T08:00:41.920Z,99643.69
2023-05-08T08:03:08.938Z,99647.53
2023-05-08T08:05:35.870Z,99645.50
2023-05-08T08:08:02.825Z,99633.66
2023-05-08T08:10:29.823Z,99637.69
2023-05-08T08:12:56.938Z,99644.09
2023-05-08T08:15:23.866Z,99636.31
2023-05-08T08:17:51.165Z,99651.22
2023-05-08T08:20:18.575Z,99628.91
2023-05-08T08:22:45.574Z,99646.31
2023-05-08T08:25:12.715Z,99631.91
2023-05-08T08:27:40.409Z,99641.69
2023-05-08T08:30:16.819Z,99582.31
2023-05-08T08:32:45.236Z,99635.69
2023-05-08T08:35:13.288Z,99596.88
2023-05-08T08:37:40.543Z,99633.03
2023-05-08T08:40:08.257Z,99650.69
2023-05-08T08:42:35.375Z,99642.59
2023-05-08T08:45:02.415Z,99641.03
2023-05-08T08:47:34.989Z,99649.81
2023-05-08T08:50:04.099Z,99649.47
2023-05-08T08:52:32.592Z,99643.91
2023-05-08T08:55:03.261Z,99640.72
2023-05-08T08:57:34.356Z,99639.28
2023-05-08T09:00:05.617Z,99638.22
2023-05-08T09:02:32.708Z,99640.63
2023-05-08T09:04:59.858Z,99627.25
2023-05-08T09:07:27.382Z,99647.81
2023-05-08T09:09:54.995Z,99646.75
2023-05-08T09:12:22.010Z,99643.06
2023-05-08T09:14:48.905Z,99645.13
2023-05-08T09:17:15.747Z,99652.78
2023-05-08T09:19:43.184Z,99615.66
2023-05-08T09:22:11.605Z,99641.88
2023-05-08T09:24:58.021Z,99626.47
2023-05-08T09:27:26.790Z,99633.19
2023-05-08T09:30:02.253Z,99637.91
2023-05-08T09:32:30.561Z,99641.47
2023-05-08T09:34:58.176Z,99635.38
2023-05-08T09:37:26.314Z,99626.97
2023-05-08T09:39:53.919Z,99640.13
2023-05-08T09:42:21.431Z,99629.63
2023-05-08T09:44:53.176Z,99632.66
2023-05-08T09:47:22.879Z,99624.25
2023-05-08T09:50:07.358Z,99625.94
2023-05-08T09:52:35.742Z,99623.25
2023-05-08T09:55:06.963Z,99629.97
2023-05-08T09:57:38.554Z,99635.06
2023-05-08T10:00:10.320Z,99613.13
2023-05-08T10:02:38.819Z,99633.69
2023-05-08T10:05:23.126Z,99598.47
2023-05-08T10:07:50.281Z,99618.53
2023-05-08T10:10:26.887Z,99631.00
2023-05-08T10:12:55.570Z,99625.78
2023-05-08T10:15:25.580Z,99627.09
2023-05-08T10:18:03.805Z,99624.72
2023-05-08T10:20:32.016Z,99630.13
2023-05-08T10:22:59.540Z,99624.19
2023-05-08T10:25:32.828Z,99629.22
2023-05-08T10:28:40.776Z,99626.53
2023-05-08T10:31:11.944Z,99602.88
2023-05-08T10:33:41.311Z,99617.09
2023-05-08T10:36:10.177Z,99636.38
2023-05-08T10:38:38.187Z,99625.59
2023-05-08T10:41:05.806Z,99638.63
2023-05-08T10:43:33.816Z,99619.53
2023-05-08T10:46:08.531Z,99605.38
2023-05-08T10:48:47.569Z,99624.91
2023-05-08T10:51:19.438Z,99621.19
2023-05-08T10:54:19.045Z,99623.91
2023-05-08T10:56:45.852Z,99612.19
2023-05-08T10:59:20.065Z,99622.06
2023-05-08T11:01:50.424Z,99610.91
2023-05-08T11:04:23.912Z,99605.88
2023-05-08T11:06:53.122Z,99603.44
2023-05-08T11:09:27.748Z,99622.66
2023-05-08T11:12:07.006Z,99617.81
2023-05-08T11:14:36.925Z,99623.44
2023-05-08T11:17:04.732Z,99612.59
2023-05-08T11:19:31.911Z,99621.59
2023-05-08T11:22:22.097Z,99613.91
2023-05-08T11:24:51.228Z,99617.56
2023-05-08T11:27:18.280Z,99610.97
2023-05-08T11:29:45.254Z,99623.16
2023-05-08T11:32:12.268Z,99625.63
2023-05-08T11:34:42.294Z,99616.91
2023-05-08T11:37:17.363Z,99621.97
2023-05-08T11:39:44.132Z,99612.09
2023-05-08T11:42:27.278Z,99613.44
2023-05-08T11:45:08.914Z,99614.44
2023-05-08T11:47:41.708Z,99596.81
2023-05-08T11:50:10.490Z,99601.03
2023-05-08T11:52:39.907Z,99596.19
2023-05-08T11:55:11.918Z,99601.81
2023-05-08T11:57:38.836Z,99594.50
2023-05-08T12:00:06.652Z,99599.59
2023-05-08T12:02:41.940Z,99588.94
2023-05-08T12:05:10.585Z,99601.28
2023-05-08T12:07:47.449Z,99592.78
2023-05-08T12:10:15.902Z,99590.16
2023-05-08T12:12:44.428Z,99554.91
2023-05-08T12:15:14.037Z,99585.09
2023-05-08T12:17:42.058Z,99585.84
2023-05-08T12:20:16.441Z,99590.94
2023-05-08T12:22:53.023Z,99598.78
2023-05-08T12:25:20.743Z,99570.84
2023-05-08T12:27:48.552Z,99585.84
2023-05-08T12:30:16.619Z,99590.25
2023-05-08T12:32:44.730Z,99591.66
2023-05-08T12:35:13.015Z,99575.97
2023-05-08T12:37:40.528Z,99589.94
2023-05-08T12:40:08.460Z,99589.94
2023-05-08T12:43:03.047Z,99581.56
2023-05-08T12:45:34.010Z,99567.09
2023-05-08T12:48:12.273Z,99579.16
2023-05-08T12:50:41.901Z,99584.47
2023-05-08T12:53:10.510Z,99576.88
2023-05-08T12:55:39.832Z,99572.94
2023-05-08T12:58:14.221Z,99577.28
2023-05-08T13:00:46.363Z,99579.22
2023-05-08T13:03:22.593Z,99569.38
2023-05-08T13:05:49.564Z,99572.25
2023-05-08T13:08:16.443Z,99534.44
2023-05-08T13:10:46.537Z,99569.94
2023-05-08T13:13:14.815Z,99572.88
2023-05-08T13:15:41.956Z,99568.69
2023-05-08T13:18:09.212Z,99580.25
2023-05-08T13:20:36.619Z,99571.84
2023-05-08T13:23:04.362Z,99577.72
2023-05-08T13:25:31.846Z,99571.22
2023-05-08T13:27:58.987Z,99564.94
2023-05-08T13:30:26.448Z,99557.66
2023-05-08T13:32:53.916Z,99559.97
2023-05-08T13:35:21.905Z,99557.81
2023-05-08T13:37:49.210Z,99563.34
2023-05-08T13:40:17.076Z,99571.66
2023-05-08T13:42:43.943Z,99556.63
2023-05-08T13:45:13.796Z,99560.47
2023-05-08T13:47:42.384Z,99565.47
2023-05-08T13:50:10.654Z,99562.66
2023-05-08T13:52:38.476Z,99569.97
2023-05-08T13:55:09.925Z,99522.84
2023-05-08T13:57:37.163Z,99563.63
2023-05-08T14:00:05.892Z,99520.50
2023-05-08T14:02:33.085Z,99546.06
2023-05-08T14:05:00.052Z,99571.09
2023-05-08T14:07:26.945Z,99559.19
2023-05-08T14:09:54.498Z,99564.66
2023-05-08T14:12:21.429Z,99561.47
2023-05-08T14:14:48.313Z,99558.41
2023-05-08T14:17:15.173Z,99564.44
2023-05-08T14:19:41.958Z,99550.44
2023-05-08T14:22:08.795Z,99557.09
2023-05-08T14:24:35.584Z,99552.28
2023-05-08T14:27:06.413Z,99553.72
2023-05-08T14:29:34.323Z,99553.38
2023-05-08T14:32:01.555Z,99554.50
2023-05-08T14:34:28.435Z,99551.28
2023-05-08T14:36:55.365Z,99554.34
2023-05-08T14:39:22.211Z,99560.19
2023-05-08T14:42:10.286Z,99554.06
2023-05-08T14:44:36.014Z,99552.69
2023-05-08T14:47:02.936Z,99562.19
2023-05-08T14:49:37.331Z,99564.28
2023-05-08T14:52:06.077Z,99568.25
2023-05-08T14:54:33.594Z,99550.16
2023-05-08T14:57:00.835Z,99563.13
2023-05-08T14:59:27.730Z,99569.22
2023-05-08T15:01:54.762Z,99561.50
2023-05-08T15:04:21.780Z,99560.66
2023-05-08T15:06:48.754Z,99560.63
2023-05-08T15:09:16.974Z,99559.34
2023-05-08T15:11:44.121Z,99566.13
2023-05-08T15:14:11.106Z,99562.56
2023-05-08T15:16:38.045Z,99559.78
2023-05-08T15:19:05.003Z,99565.00
2023-05-08T15:21:31.836Z,99563.69
2023-05-08T15:23:58.736Z,99568.06
2023-05-08T15:26:25.825Z,99557.88
2023-05-08T15:28:52.714Z,99553.38
2023-05-08T15:31:19.603Z,99556.81
2023-05-08T15:33:47.942Z,99550.78
2023-05-08T15:36:15.220Z,99543.53
2023-05-08T15:38:42.935Z,99517.75
2023-05-08T15:41:14.558Z,99549.75
2023-05-08T15:43:42.956Z,99549.09
2023-05-08T15:46:10.061Z,99546.44
2023-05-08T15:48:36.965Z,99547.09
2023-05-08T15:51:03.814Z,99543.63
2023-05-08T15:53:30.727Z,99537.00
2023-05-08T15:55:57.714Z,99542.16
2023-05-08T15:58:24.951Z,99519.53
2023-05-08T16:00:52.238Z,99543.59
2023-05-08T16:03:19.312Z,99537.19
2023-05-08T16:05:46.398Z,99541.31
2023-05-08T16:08:13.932Z,99544.09
2023-05-08T16:10:42.221Z,99543.63
2023-05-08T16:13:09.455Z,99534.69
2023-05-08T16:15:36.516Z,99509.94
2023-05-08T16:18:03.624Z,99538.00
2023-05-08T16:20:31.541Z,99530.16
2023-05-08T16:22:59.962Z,99504.09
2023-05-08T16:25:26.869Z,99516.66
2023-05-08T16:27:53.753Z,99522.91
2023-05-08T16:30:21.794Z,99498.16
2023-05-08T16:32:48.665Z,99524.47
2023-05-08T16:35:18.096Z,99529.31
2023-05-08T16:37:45.674Z,99519.63
2023-05-08T16:40:12.789Z,99534.16
2023-05-08T16:42:39.599Z,99541.06
2023-05-08T16:45:07.937Z,99548.25
2023-05-08T16:47:34.936Z,99550.63
2023-05-08T16:50:02.036Z,99532.50
2023-05-08T16:52:31.013Z,99536.22
2023-05-08T16:54:57.818Z,99537.66
2023-05-08T16:57:24.630Z,99532.97
2023-05-08T16:59:52.131Z,99542.22
2023-05-08T17:02:19.452Z,99528.88
2023-05-08T17:04:47.474Z,99540.78
2023-05-08T17:07:15.094Z,99536.22
2023-05-08T17:09:42.157Z,99539.13
2023-05-08T17:12:09.239Z,99531.09
2023-05-08T17:14:39.205Z,99535.91
2023-05-08T17:17:06.626Z,99529.34
2023-05-08T17:19:34.959Z,99532.94
2023-05-08T17:22:02.159Z,99520.88
2023-05-08T17:24:32.784Z,99535.44
2023-05-08T17:26:59.869Z,99533.75
2023-05-08T17:29:26.856Z,99537.03
2023-05-08T17:31:53.830Z,99536.03
2023-05-08T17:34:21.376Z,99545.16
2023-05-08T17:36:48.521Z,99543.34
2023-05-08T17:39:15.915Z,99541.16
2023-05-08T17:41:42.837Z,99545.13
2023-05-08T17:44:09.791Z,99534.06
2023-05-08T17:46:36.691Z,99539.63
2023-05-08T17:49:03.860Z,99534.44
2023-05-08T17:51:31.698Z,99538.22
2023-05-08T17:53:58.640Z,99539.75
2023-05-08T17:56:26.679Z,99545.97
2023-05-08T17:58:53.870Z,99511.59
2023-05-08T18:01:20.801Z,99534.19
2023-05-08T18:03:48.632Z,99540.59
2023-05-08T18:06:16.673Z,99535.19
2023-05-08T18:08:44.342Z,99551.03
2023-05-08T18:11:22.623Z,99557.63
2023-05-08T18:13:50.651Z,99552.03
2023-05-08T18:16:19.413Z,99555.22
2023-05-08T18:18:46.359Z,99551.19
2023-05-08T18:21:13.503Z,99552.19
2023-05-08T18:23:40.739Z,99552.50
2023-05-08T18:26:07.791Z,99549.81
2023-05-08T18:28:37.163Z,99562.44
2023-05-08T18:31:04.190Z,99557.41
2023-05-08T18:33:31.122Z,99563.94
2023-05-08T18:35:58.048Z,99564.78
2023-05-08T18:38:25.640Z,99562.44
2023-05-08T18:40:52.560Z,99520.69
2023-05-08T18:43:19.491Z,99560.72
2023-05-08T18:45:46.609Z,99577.53
2023-05-08T18:48:13.673Z,99564.28
2023-05-08T18:50:40.575Z,99579.41
2023-05-08T18:53:08.381Z,99577.00
2023-05-08T18:55:35.316Z,99577.81
2023-05-08T18:58:02.364Z,99578.75
2023-05-08T19:00:29.293Z,99542.72
2023-05-08T19:02:56.599Z,99574.06
2023-05-08T19:05:23.828Z,99592.72
2023-05-08T19:07:51.986Z,99579.81
2023-05-08T19:10:18.926Z,99577.69
2023-05-08T19:12:46.261Z,99573.75
2023-05-08T19:15:14.168Z,99568.31
2023-05-08T19:17:41.977Z,99568.25
2023-05-08T19:20:09.318Z,99574.88
2023-05-08T19:22:36.334Z,99580.34
2023-05-08T19:25:05.308Z,99576.72
2023-05-08T19:27:33.649Z,99571.88
2023-05-08T19:30:00.696Z,99572.63
2023-05-08T19:32:27.897Z,99575.19
2023-05-08T19:34:57.569Z,99576.28
2023-05-08T19:37:24.954Z,99578.38
2023-05-08T19:39:51.974Z,99552.06
2023-05-08T19:42:18.894Z,99566.63
2023-05-08T19:44:45.788Z,99574.56
2023-05-08T19:47:13.209Z,99575.47
2023-05-08T19:49:40.170Z,99570.94
2023-05-08T19:52:08.169Z,99567.44
2023-05-08T19:54:35.186Z,99570.56
2023-05-08T19:57:02.416Z,99571.31
2023-05-08T19:59:29.441Z,99565.13
2023-05-08T20:01:56.424Z,99573.06
2023-05-08T20:04:24.426Z,99561.78
2023-05-08T20:06:51.435Z,99553.59
2023-05-08T20:09:18.359Z,99556.41
2023-05-08T20:11:45.431Z,99553.31
2023-05-08T20:14:12.342Z,99555.28
2023-05-08T20:16:39.452Z,99559.00
2023-05-08T20:19:06.515Z,99557.72
2023-05-08T20:21:34.243Z,99548.28
2023-05-08T20:24:01.300Z,99543.47
2023-05-08T20:26:29.640Z,99551.81
2023-05-08T20:28:57.577Z,99556.44
2023-05-08T20:31:25.997Z,99549.81
2023-05-08T20:33:52.923Z,99550.97
2023-05-08T20:36:20.283Z,99539.25
2023-05-08T20:38:47.353Z,99548.84
2023-05-08T20:41:14.297Z,99543.47
2023-05-08T20:43:41.210Z,99547.44
2023-05-08T20:46:08.501Z,99548.41
2023-05-08T20:48:35.522Z,99546.75
2023-05-08T20:51:02.502Z,99550.41
2023-05-08T20:53:29.418Z,99546.88
2023-05-08T20:56:03.419Z,99545.34
2023-05-08T20:58:30.520Z,99540.13
2023-05-08T21:00:57.566Z,99539.41
2023-05-08T21:03:24.508Z,99539.25
2023-05-08T21:05:51.930Z,99535.59
2023-05-08T21:08:22.508Z,99523.91
2023-05-08T21:10:49.558Z,99537.16
2023-05-08T21:13:16.704Z,99534.63
2023-05-08T21:15:43.650Z,99534.91
2023-05-08T21:18:12.161Z,99524.63
2023-05-08T21:20:39.389Z,99530.22
2023-05-08T21:23:06.693Z,99520.94
2023-05-08T21:25:33.825Z,99532.75
2023-05-08T21:28:00.800Z,99533.31
2023-05-08T21:30:27.722Z,99532.06
2023-05-08T21:32:54.687Z,99531.22
2023-05-08T21:35:22.383Z,99530.47
2023-05-08T21:37:54.431Z,99529.63
2023-05-08T21:40:22.019Z,99530.03
2023-05-08T21:42:48.947Z,99503.69
2023-05-08T21:45:16.177Z,99525.97
2023-05-08T21:47:43.358Z,99536.09
2023-05-08T21:50:10.618Z,99529.34
2023-05-08T21:52:37.587Z,99532.41
2023-05-08T21:55:08.737Z,99528.31
2023-05-08T21:57:36.242Z,99530.16
2023-05-08T22:00:04.208Z,99521.69
2023-05-08T22:02:31.258Z,99521.97
2023-05-08T22:04:58.232Z,99522.09
2023-05-08T22:07:25.164Z,99524.47
2023-05-08T22:09:52.176Z,99511.31
2023-05-08T22:12:19.398Z,99529.22
2023-05-08T22:14:46.374Z,99525.00
2023-05-08T22:17:13.267Z,99519.50
2023-05-08T22:19:40.169Z,99524.97
2023-05-08T22:22:07.435Z,99514.81
2023-05-08T22:24:36.709Z,99520.88
2023-05-08T22:27:03.694Z,99509.47
2023-05-08T22:29:30.621Z,99506.09
2023-05-08T22:31:57.656Z,99501.84
2023-05-08T22:34:24.672Z,99506.50
2023-05-08T22:36:51.609Z,99500.28
2023-05-08T22:39:18.518Z,99454.88
2023-05-08T22:41:45.573Z,99489.56
2023-05-08T22:44:12.606Z,99493.94
2023-05-08T22:46:39.821Z,99500.13
2023-05-08T22:49:06.810Z,99501.09
2023-05-08T22:51:33.821Z,99498.72
2023-05-08T22:54:00.965Z,99495.19
2023-05-08T22:56:27.957Z,99498.81
2023-05-08T22:58:55.071Z,99493.31
2023-05-08T23:01:22.723Z,99489.38
2023-05-08T23:03:52.417Z,99490.75
2023-05-08T23:06:19.630Z,99497.81
2023-05-08T23:08:46.605Z,99491.72
2023-05-08T23:11:13.636Z,99495.66
2023-05-08T23:13:40.524Z,99493.25
2023-05-08T23:16:07.611Z,99495.19
2023-05-08T23:18:34.906Z,99491.84
2023-05-08T23:21:08.890Z,99491.84
2023-05-08T23:23:36.272Z,99479.97
2023-05-08T23:26:05.302Z,99478.69
2023-05-08T23:28:35.905Z,99480.38
2023-05-08T23:31:03.634Z,99487.81
2023-05-08T23:33:31.182Z,99473.13
2023-05-08T23:35:59.468Z,99479.09
2023-05-08T23:38:26.514Z,99474.00
2023-05-08T23:40:53.452Z,99477.66
2023-05-08T23:43:20.365Z,99483.00
2023-05-08T23:45:47.350Z,99476.94
2023-05-08T23:48:14.297Z,99475.22
2023-05-08T23:50:41.996Z,99470.28
2023-05-08T23:53:09.067Z,99468.97
2023-05-08T23:55:39.659Z,99465.78
2023-05-08T23:58:06.777Z,99449.59
